首页
METAR-TAF:

METAR-TAF

机场 :

Ogden-Hinckley Airport

奥格登, 犹他州, 美国

纬度: 41-11-37N, 经度: 112-00-59W, 海拔: 1362米

当前天气观测

该预报发布于1小时和10分钟前的23:53 UTC
风速7节,风向北转西北
温度 36°C
湿度 15%
气压 1014 hPa
能見度: 16.1公里
天空无云

METAR: KOGD 122353Z 34007KT 10SM CLR 36/05 A2994 RMK AO2 SLP067 T03610050 10367 20317 56019

时间: 19:03 (01:03 UTC)

预报

该预报发布于1小时和43分钟前的23:20 UTC
预报有效从13日的 00点(UTC)到 13日的 24点(UTC)
风速8节,风向西转西北
能見度: 10公里
散云层高于15000英尺
从 13日的 0200点(UTC)
风速8节,风向
能見度: 10公里
少量云层高于15000英尺
从 13日的 0900点(UTC)
风速7节,风向
能見度: 10公里
天空无云
从 13日的 1800点(UTC)
风速8节,风向西转西南
能見度: 10公里
天空无云

TAF: KOGD 122320Z 1300/1324 29008KT P6SM SCT150 FM130200 36008KT P6SM FEW150 FM130900 17007KT P6SM SKC FM131800 24008KT P6SM SKC

超过4000个机场的气象观测和天气预报(METAR&TAF报告)。

可查询的气象台以黄色和红色小点在地图上表示。

将鼠标移到小点上方,可查看气象台名称。

然后点击查看天气观测和预报。

如需切换地图:点击带黑十字的绿色按钮放大地图;点击带横线的绿色按钮缩小地图;或者点击绿色箭头查看邻近地区的地图。


METAR-TAF: